TFM - Tactical Decision Aid
ID: Runway Winds: CIG/VIS Threshold:

KCAE - Columbia Metro, SC, US

Updated at: 1045 UTC 26 Sep 2018
Latest TAF at: 0858 UTC 26 Sep 2018

TAF Board

Time0956Z 26/11Z 26/12Z 26/13Z 26/14Z 26/15Z 26/16Z 26/17Z 26/18Z 26/19Z 26/20Z 26/21Z 26/22Z 26/23Z>>
Type OBS PRVL PRVL PRVL PRVL PRVL PRVL PRVL PRVL PRVL PRVL PRVL PRVL PRVL
VIS 9 5 5 5 >6 >6 >6 >6 >6 >6 >6 >6 >6 >6
CIG -- -- -- -- -- -- -- -- -- -- 40 40 40 40
Cover CLR SCT SCT SCT SCT SCT SCT SCT SCT SCT BKN BKN BKN BKN
FltCat VFR MVFR MVFR MVFR VFR VFR VFR VFR VFR VFR VFR VFR VFR VFR
WX -- BR BR BR -- -- -- -- -- -- VCTS VCTS VCTS VCTS
WDir VRB VRB VRB VRB 230 230 230 230 230 230 240 240 240 240
WSpd 0 3 3 3 7 7 7 7 7 7 7 7 7 7
WGst -- -- -- -- -- -- -- -- -- -- -- -- -- --

TDA Impact Legend

  None Marginal Slight Moderate High
Visibility (sm) >5 3≤X≤5 2≤X<3 0.5≤X<2 <0.5
Ceiling (100 ft) >30 10≤X≤30 6≤X<10 2≤X<6 <2
Wind Speed (kt) <15 15≤X<25 25≤X<30 ≥30
Wind Gust (kt) <15 15≤X<25 25≤X<35 ≥35
Weather No Wx Reported VCTS -TS,-FZRA TS,FZRA +TS,+FZRA
TAF
KCAE 260858Z 2609/2706 VRB03KT P6SM FEW050
  FM261000 VRB03KT 5SM BR SCT012
  FM261330 23007KT P6SM SCT035
  FM262000 24007KT P6SM VCTS BKN040CB
  FM270000 VRB03KT P6SM VCSH SCT040 BKN100


METAR
KCAE 260956Z 00000KT 9SM CLR 21/21 A3008 RMK AO2 SLP184 T02110206
KCAE 260856Z 23003KT 9SM CLR 21/21 A3008 RMK AO2 SLP184 T02110206 55009
KCAE 260756Z 28004KT 10SM CLR 21/21 A3008 RMK AO2 SLP183 T02110211

Radar Display
Forecast Discussion